Time;durP1;ratioP1;P1;durP2;ratioP2;P2;SDS_P1;SDS_P2;PMS_P1;PMS_P2;Temp;Humidity;BMP_temperature;BMP_pressure;BME280_temperature;BME280_humidity;BME280_pressure;Samples;Min_cycle;Max_cycle;Signal;HPM_P1;HPM_P2
2021/04/18 00:00:52;;;;;;;23.00;7.57;;;;;;;5.09;100.00;102503.78;6158592;23;20002;-84
2021/04/18 00:03:18;;;;;;;19.63;7.30;;;;;;;5.06;100.00;102499.38;6131701;23;20010;-84
2021/04/18 00:05:43;;;;;;;17.77;7.85;;;;;;;5.10;100.00;102508.16;6132070;23;20088;-84
2021/04/18 00:08:09;;;;;;;21.58;7.90;;;;;;;5.13;100.00;102511.66;6131631;23;20041;-84
2021/04/18 00:10:37;;;;;;;23.45;8.55;;;;;;;5.01;100.00;102508.09;6159135;23;20006;-85
2021/04/18 00:13:03;;;;;;;18.52;7.55;;;;;;;5.08;100.00;102518.63;6135263;23;20013;-84
2021/04/18 00:15:29;;;;;;;18.92;7.20;;;;;;;5.00;100.00;102511.59;6130408;23;20067;-85
2021/04/18 00:17:55;;;;;;;16.10;6.93;;;;;;;4.99;100.00;102515.97;6130787;23;20005;-85
2021/04/18 00:20:20;;;;;;;29.00;7.68;;;;;;;4.95;100.00;102498.47;6131268;23;20005;-84
2021/04/18 00:22:46;;;;;;;25.50;7.80;;;;;;;4.89;100.00;102480.09;6129461;23;20001;-83
2021/04/18 00:25:14;;;;;;;14.60;6.75;;;;;;;4.97;100.00;102501.09;6155541;23;20005;-84
2021/04/18 00:27:40;;;;;;;17.88;6.38;;;;;;;4.83;100.00;102480.06;6129895;23;20013;-84
2021/04/18 00:30:09;;;;;;;22.85;6.53;;;;;;;4.84;100.00;102477.44;6157876;23;20141;-85
2021/04/18 00:32:34;;;;;;;20.27;7.22;;;;;;;4.98;100.00;102495.00;6129899;23;20005;-85
2021/04/18 00:34:59;;;;;;;20.77;6.35;;;;;;;4.89;100.00;102480.97;6155833;23;20013;-84
2021/04/18 00:37:25;;;;;;;19.63;6.38;;;;;;;4.92;100.00;102490.59;6131400;23;20009;-85
2021/04/18 00:39:50;;;;;;;21.08;5.93;;;;;;;4.89;100.00;102477.47;6130894;23;20093;-85
2021/04/18 00:42:16;;;;;;;22.02;5.75;;;;;;;4.91;100.00;102478.34;6161298;23;20001;-83
2021/04/18 00:44:42;;;;;;;23.95;6.55;;;;;;;4.78;100.00;102479.16;6157624;23;20008;-84
2021/04/18 00:47:07;;;;;;;18.27;6.13;;;;;;;4.84;100.00;102466.09;6158559;23;20005;-84
2021/04/18 00:49:33;;;;;;;20.67;6.63;;;;;;;4.67;100.00;102451.19;6135627;23;20412;-83
2021/04/18 00:51:58;;;;;;;18.15;6.72;;;;;;;4.62;100.00;102454.63;6156654;23;20002;-83
2021/04/18 00:54:23;;;;;;;21.17;6.35;;;;;;;4.79;100.00;102470.44;6132720;23;20005;-84
2021/04/18 00:56:48;;;;;;;27.65;9.25;;;;;;;4.65;100.00;102439.78;6129865;23;20005;-84
2021/04/18 00:59:14;;;;;;;27.63;6.20;;;;;;;4.72;100.00;102469.53;6156199;23;20005;-84
2021/04/18 01:01:39;;;;;;;23.25;6.68;;;;;;;4.80;100.00;102470.44;6160582;23;20016;-84
2021/04/18 01:04:06;;;;;;;22.08;6.82;;;;;;;4.75;100.00;102471.28;6161873;23;20009;-84
2021/04/18 01:06:31;;;;;;;20.02;6.22;;;;;;;4.73;100.00;102468.66;6161219;23;20503;-84
2021/04/18 01:08:56;;;;;;;20.58;6.15;;;;;;;4.73;100.00;102473.03;6135819;23;20009;-85
2021/04/18 01:11:21;;;;;;;27.33;7.38;;;;;;;4.57;100.00;102451.13;6136099;23;20033;-84
2021/04/18 01:13:47;;;;;;;24.08;5.90;;;;;;;4.58;100.00;102456.34;6160269;23;20005;-84
2021/04/18 01:16:14;;;;;;;23.92;6.30;;;;;;;4.52;100.00;102458.03;6133945;23;20008;-84
2021/04/18 01:18:40;;;;;;;22.13;6.43;;;;;;;4.58;100.00;102456.34;6134026;23;20005;-83
2021/04/18 01:21:12;;;;;;;16.85;5.85;;;;;;;4.60;100.00;102461.59;6134618;23;20356;-83
2021/04/18 01:23:40;;;;;;;24.17;6.22;;;;;;;4.49;100.00;102453.66;6135111;23;20076;-83
2021/04/18 01:26:05;;;;;;;22.20;6.82;;;;;;;4.50;100.00;102449.31;6159940;23;20009;-84
2021/04/18 01:28:32;;;;;;;19.77;6.53;;;;;;;4.30;100.00;102428.22;6125238;23;20044;-83
2021/04/18 01:30:59;;;;;;;21.90;6.68;;;;;;;4.33;100.00;102442.22;6103024;23;20002;-84
2021/04/18 01:33:24;;;;;;;18.05;6.03;;;;;;;4.42;100.00;102451.91;6103194;23;20324;-83
2021/04/18 01:35:50;;;;;;;22.48;6.82;;;;;;;4.49;100.00;102444.94;6130493;23;20029;-83
2021/04/18 01:38:16;;;;;;;25.80;7.32;;;;;;;4.58;100.00;102450.25;6128160;23;20056;-83
2021/04/18 01:40:43;;;;;;;17.65;6.85;;;;;;;4.48;100.00;102448.44;6131072;23;20013;-84
2021/04/18 01:43:14;;;;;;;27.02;7.75;;;;;;;4.41;100.00;102447.50;6107708;23;20009;-83
2021/04/18 01:45:40;;;;;;;15.77;6.30;;;;;;;4.47;100.00;102452.81;6107329;23;20013;-84
2021/04/18 01:48:06;;;;;;;21.50;7.25;;;;;;;4.42;100.00;102444.03;6107109;23;20014;-84
2021/04/18 01:50:32;;;;;;;23.13;6.40;;;;;;;4.39;100.00;102447.50;6106843;23;20420;-84
2021/04/18 01:52:58;;;;;;;19.83;7.40;;;;;;;4.33;100.00;102451.81;6104656;23;20010;-84
2021/04/18 01:55:23;;;;;;;19.65;6.93;;;;;;;4.36;100.00;102451.81;6130170;23;20005;-84
2021/04/18 01:57:49;;;;;;;17.00;6.00;;;;;;;4.27;100.00;102433.47;6103870;23;20064;-85
2021/04/18 02:00:15;;;;;;;27.73;7.40;;;;;;;4.27;100.00;102441.31;6104343;23;20002;-84
2021/04/18 02:02:41;;;;;;;23.83;7.38;;;;;;;4.32;100.00;102437.00;6128888;23;20002;-83
2021/04/18 02:05:08;;;;;;;23.67;7.30;;;;;;;4.33;100.00;102434.38;6128535;23;20734;-84
2021/04/18 02:07:33;;;;;;;27.35;7.57;;;;;;;4.32;100.00;102429.13;6129483;23;20111;-84
2021/04/18 02:09:58;;;;;;;15.88;8.27;;;;;;;4.29;100.00;102440.44;6103291;23;20040;-83
2021/04/18 02:12:24;;;;;;;27.92;7.05;;;;;;;4.26;100.00;102426.47;6105117;23;20002;-84
2021/04/18 02:14:49;;;;;;;22.75;7.85;;;;;;;4.20;100.00;102419.44;6103253;23;20032;-84
2021/04/18 02:17:14;;;;;;;30.60;8.95;;;;;;;4.31;100.00;102435.22;6103722;23;20073;-83
2021/04/18 02:19:39;;;;;;;34.92;8.88;;;;;;;4.31;100.00;102433.47;6103585;23;20426;-84
2021/04/18 02:22:05;;;;;;;28.48;9.18;;;;;;;4.21;100.00;102438.63;6104895;23;20002;-84
2021/04/18 02:24:30;;;;;;;27.52;9.00;;;;;;;4.18;100.00;102433.41;6106213;23;20002;-84
2021/04/18 02:26:56;;;;;;;31.58;9.75;;;;;;;4.16;100.00;102442.09;6104898;23;20006;-84
2021/04/18 02:29:21;;;;;;;20.33;8.82;;;;;;;4.07;100.00;102439.44;6104211;23;20017;-84
2021/04/18 02:31:47;;;;;;;22.52;8.82;;;;;;;4.02;100.00;102435.03;6103505;23;20412;-84
2021/04/18 02:34:12;;;;;;;22.58;8.05;;;;;;;3.99;100.00;102427.13;6103549;23;20013;-84
2021/04/18 02:36:38;;;;;;;24.45;8.18;;;;;;;3.90;100.00;102438.38;6130552;23;20368;-84
2021/04/18 02:39:05;;;;;;;20.13;8.35;;;;;;;3.87;100.00;102441.88;6104417;23;20079;-84
2021/04/18 02:41:31;;;;;;;21.45;8.43;;;;;;;3.85;100.00;102440.97;6102536;23;20010;-83
2021/04/18 02:43:56;;;;;;;26.88;9.10;;;;;;;3.90;100.00;102438.38;6127140;23;20065;-82
2021/04/18 02:46:22;;;;;;;23.33;8.30;;;;;;;3.90;100.00;102427.94;6101533;23;20746;-82
2021/04/18 02:48:47;;;;;;;22.88;9.48;;;;;;;3.88;100.00;102432.28;6101537;23;20006;-82
2021/04/18 02:51:12;;;;;;;34.13;9.07;;;;;;;4.00;100.00;102424.53;6102125;23;20661;-82
2021/04/18 02:53:38;;;;;;;15.27;8.70;;;;;;;3.91;100.00;102432.28;6111942;23;20002;-84
2021/04/18 02:56:03;;;;;;;18.38;7.93;;;;;;;3.89;100.00;102434.03;6118517;23;20013;-82
2021/04/18 02:58:29;;;;;;;21.13;8.15;;;;;;;3.96;100.00;102425.34;6124024;23;19986;-83
2021/04/18 03:00:54;;;;;;;14.70;8.02;;;;;;;4.00;100.00;102434.13;6120149;23;20002;-85
2021/04/18 03:03:19;;;;;;;28.13;10.00;;;;;;;4.06;100.00;102440.25;6109311;23;20060;-84
2021/04/18 03:05:45;;;;;;;24.02;10.07;;;;;;;4.02;100.00;102435.03;6109192;23;20120;-83
2021/04/18 03:08:10;;;;;;;22.27;9.20;;;;;;;4.07;100.00;102431.56;6109933;23;20012;-83
2021/04/18 03:10:35;;;;;;;23.00;10.45;;;;;;;4.17;100.00;102429.91;6108486;23;20041;-82
2021/04/18 03:13:01;;;;;;;25.67;10.55;;;;;;;4.20;100.00;102426.41;6135819;23;20037;-84
2021/04/18 03:15:26;;;;;;;28.02;11.18;;;;;;;4.33;100.00;102430.88;6136104;23;20005;-83
2021/04/18 03:17:52;;;;;;;27.02;9.63;;;;;;;4.38;100.00;102429.16;6137178;23;20010;-83
2021/04/18 03:20:17;;;;;;;35.03;10.48;;;;;;;4.53;100.00;102429.25;6135803;23;20005;-83
2021/04/18 03:22:43;;;;;;;30.00;9.82;;;;;;;4.59;100.00;102431.03;6110097;23;20793;-84
2021/04/18 03:25:09;;;;;;;24.20;10.70;;;;;;;4.70;100.00;102412.75;6110743;23;20010;-84
2021/04/18 03:27:35;;;;;;;27.63;11.05;;;;;;;4.73;100.00;102418.03;6136914;23;20002;-84
2021/04/18 03:30:00;;;;;;;32.20;10.88;;;;;;;4.77;100.00;102420.66;6163011;23;20098;-84
2021/04/18 03:32:26;;;;;;;32.72;12.23;;;;;;;4.75;100.00;102411.03;6141511;23;20323;-85
2021/04/18 03:34:51;;;;;;;22.17;10.32;;;;;;;4.85;100.00;102426.78;6167607;23;20278;-85
2021/04/18 03:37:17;;;;;;;24.75;9.88;;;;;;;4.71;100.00;102410.13;6167110;23;20001;-85
2021/04/18 03:39:42;;;;;;;29.33;11.32;;;;;;;4.73;100.00;102420.66;6142143;23;20388;-85
2021/04/18 03:42:08;;;;;;;28.58;10.85;;;;;;;4.74;100.00;102418.03;6141479;23;20013;-84
2021/04/18 03:44:34;;;;;;;28.35;11.15;;;;;;;4.84;100.00;102414.56;6140673;23;20009;-84
2021/04/18 03:47:00;;;;;;;34.10;11.40;;;;;;;4.77;100.00;102410.19;6165774;23;20033;-83
2021/04/18 03:49:25;;;;;;;27.90;10.77;;;;;;;4.88;100.00;102412.84;6143577;23;20052;-85
2021/04/18 03:51:50;;;;;;;32.42;10.98;;;;;;;4.94;100.00;102420.72;6143906;23;20005;-84
2021/04/18 03:54:16;;;;;;;31.77;10.80;;;;;;;5.08;100.00;102416.41;6169693;23;20014;-83
2021/04/18 03:56:41;;;;;;;31.17;11.25;;;;;;;5.02;100.00;102413.78;6143241;23;20021;-82
2021/04/18 03:59:06;;;;;;;31.95;11.73;;;;;;;5.08;100.00;102412.94;6149446;23;20005;-83
2021/04/18 04:01:32;;;;;;;28.38;10.05;;;;;;;5.02;100.00;102408.53;6168032;23;20005;-85
2021/04/18 04:03:57;;;;;;;32.92;12.30;;;;;;;5.14;100.00;102416.44;6140923;23;20009;-84
2021/04/18 04:06:23;;;;;;;30.77;10.57;;;;;;;5.13;100.00;102422.56;6143283;23;20013;-84
2021/04/18 04:08:48;;;;;;;25.45;10.55;;;;;;;5.10;100.00;102417.28;6172331;23;20052;-84
2021/04/18 04:11:14;;;;;;;29.05;11.43;;;;;;;5.11;100.00;102419.03;6143528;23;20009;-84
2021/04/18 04:13:39;;;;;;;25.02;10.75;;;;;;;5.04;100.00;102411.16;6170461;23;20412;-84
2021/04/18 04:16:05;;;;;;;21.65;11.15;;;;;;;5.08;100.00;102418.16;6165807;23;20005;-84
2021/04/18 04:18:30;;;;;;;28.48;12.23;;;;;;;5.17;100.00;102416.47;6142855;23;20160;-84
2021/04/18 04:20:55;;;;;;;25.95;12.02;;;;;;;5.26;100.00;102412.09;6169037;23;20005;-84
2021/04/18 04:23:21;;;;;;;28.67;12.57;;;;;;;5.11;100.00;102413.78;6141781;23;20008;-84
2021/04/18 04:25:46;;;;;;;29.48;11.57;;;;;;;5.24;100.00;102425.19;6140330;23;20008;-84
2021/04/18 04:28:13;;;;;;;26.10;11.52;;;;;;;5.32;100.00;102418.25;6166062;23;20041;-84
2021/04/18 04:30:38;;;;;;;26.60;10.70;;;;;;;5.40;100.00;102420.88;6139436;23;20014;-84
2021/04/18 04:33:04;;;;;;;23.67;10.60;;;;;;;5.34;100.00;102420.88;6163506;23;20031;-84
2021/04/18 04:35:29;;;;;;;29.00;11.25;;;;;;;5.17;100.00;102415.56;6163331;23;20009;-85
2021/04/18 04:37:54;;;;;;;26.67;12.50;;;;;;;5.10;100.00;102425.16;6137317;23;20009;-85
2021/04/18 04:40:20;;;;;;;30.40;13.20;;;;;;;5.05;100.00;102431.25;6135345;23;20005;-84
2021/04/18 04:42:45;;;;;;;38.83;15.30;;;;;;;4.98;100.00;102427.75;6158798;23;20005;-85
2021/04/18 04:45:11;;;;;;;28.13;12.20;;;;;;;5.13;100.00;102425.19;6158184;23;20012;-84
2021/04/18 04:47:36;;;;;;;33.83;11.98;;;;;;;5.24;100.00;102412.09;6132676;23;20005;-84
2021/04/18 04:50:02;;;;;;;32.58;12.95;;;;;;;5.23;100.00;102420.84;6132421;23;20005;-85
2021/04/18 04:52:28;;;;;;;36.80;13.23;;;;;;;5.17;100.00;102412.94;6138102;23;20005;-84
2021/04/18 04:54:53;;;;;;;36.08;13.23;;;;;;;5.28;100.00;102432.22;6138056;23;20009;-84
2021/04/18 04:57:19;;;;;;;26.63;12.00;;;;;;;5.33;100.00;102424.38;6137694;23;20016;-83
2021/04/18 04:59:45;;;;;;;24.38;9.93;;;;;;;5.32;100.00;102425.22;6166829;23;20016;-83
2021/04/18 05:02:10;;;;;;;22.85;10.70;;;;;;;5.41;100.00;102433.09;6140865;23;20417;-84
2021/04/18 05:04:36;;;;;;;26.50;12.68;;;;;;;5.49;100.00;102433.13;6141792;23;20101;-84
2021/04/18 05:07:01;;;;;;;20.80;10.85;;;;;;;5.51;100.00;102429.63;6139703;23;20025;-83
2021/04/18 05:09:28;;;;;;;23.67;10.88;;;;;;;5.60;100.00;102416.53;6140045;23;19997;-83
2021/04/18 05:11:55;;;;;;;22.98;9.00;;;;;;;5.43;100.00;102428.75;6137953;23;20084;-83
2021/04/18 05:14:20;;;;;;;24.42;8.48;;;;;;;5.37;100.00;102433.97;6165080;23;20487;-85
2021/04/18 05:16:46;;;;;;;24.60;9.15;;;;;;;5.42;100.00;102427.88;6165958;23;20014;-84
2021/04/18 05:19:11;;;;;;;19.42;7.75;;;;;;;5.49;100.00;102433.13;6165326;23;20002;-84
2021/04/18 05:21:36;;;;;;;24.77;9.52;;;;;;;5.60;100.00;102421.78;6164710;23;20001;-84
2021/04/18 05:24:02;;;;;;;24.80;8.43;;;;;;;5.62;100.00;102427.91;6138347;23;20076;-84
2021/04/18 05:26:28;;;;;;;27.95;8.85;;;;;;;5.78;100.00;102428.81;6164666;23;20033;-85
2021/04/18 05:28:54;;;;;;;20.80;7.88;;;;;;;5.86;100.00;102428.78;6140484;23;20104;-85
2021/04/18 05:31:20;;;;;;;24.98;9.88;;;;;;;5.78;100.00;102435.81;6138284;23;20005;-84
2021/04/18 05:33:45;;;;;;;18.67;8.48;;;;;;;5.67;100.00;102418.31;6137668;23;20044;-85
2021/04/18 05:36:11;;;;;;;26.63;9.82;;;;;;;5.77;100.00;102440.16;6138782;23;20011;-84
2021/04/18 05:38:36;;;;;;;22.77;8.68;;;;;;;5.63;100.00;102410.44;6136721;23;20009;-85
2021/04/18 05:41:02;;;;;;;25.02;10.45;;;;;;;5.65;100.00;102425.28;6165275;23;20033;-86
2021/04/18 05:43:27;;;;;;;22.58;9.13;;;;;;;5.79;100.00;102413.94;6140515;23;19994;-85
2021/04/18 05:45:53;;;;;;;27.08;11.02;;;;;;;5.66;100.00;102426.16;6141447;23;20012;-85
2021/04/18 05:48:20;;;;;;;21.13;9.75;;;;;;;5.77;100.00;102420.91;6148214;23;20013;-84
2021/04/18 05:50:45;;;;;;;26.30;11.15;;;;;;;5.80;100.00;102419.16;6141597;23;20875;-87
2021/04/18 05:53:12;;;;;;;22.38;9.00;;;;;;;6.02;100.00;102443.69;6165623;23;20006;-85
2021/04/18 05:55:37;;;;;;;22.95;8.82;;;;;;;5.77;100.00;102427.03;6164974;23;20005;-86
2021/04/18 05:58:05;;;;;;;19.58;9.95;;;;;;;5.95;100.00;102434.94;6169338;23;20008;-86
2021/04/18 06:00:30;;;;;;;29.95;10.23;;;;;;;5.96;100.00;102434.06;6140517;23;20085;-86
2021/04/18 06:02:59;;;;;;;27.80;11.60;;;;;;;5.80;100.00;102432.28;6144801;23;20012;-85
2021/04/18 06:05:24;;;;;;;18.95;11.35;;;;;;;5.78;100.00;102434.06;6173126;23;20005;-87
2021/04/18 06:07:50;;;;;;;25.20;11.18;;;;;;;5.69;100.00;102415.69;6145197;23;20016;-85
2021/04/18 06:10:18;;;;;;;18.65;10.25;;;;;;;5.88;100.00;102445.44;6142354;23;20697;-84
2021/04/18 06:12:43;;;;;;;26.90;10.82;;;;;;;5.81;100.00;102418.28;6143202;23;20008;-84
2021/04/18 06:15:15;;;;;;;22.05;9.73;;;;;;;6.01;100.00;102433.19;6142037;23;20006;-84
2021/04/18 06:17:40;;;;;;;21.98;9.35;;;;;;;5.97;100.00;102400.81;6142601;23;20420;-85
2021/04/18 06:20:07;;;;;;;28.85;11.63;;;;;;;6.15;100.00;102436.69;6171846;23;20025;-86
2021/04/18 06:22:34;;;;;;;27.58;11.68;;;;;;;6.06;100.00;102440.19;6141327;23;20001;-85
2021/04/18 06:24:59;;;;;;;25.95;10.65;;;;;;;6.01;100.00;102439.31;6167795;23;20016;-85
2021/04/18 06:27:43;;;;;;;28.52;10.40;;;;;;;5.95;100.00;102439.31;6139570;23;20029;-84
2021/04/18 06:30:10;;;;;;;25.25;9.68;;;;;;;5.95;100.00;102450.69;6166378;23;20096;-84
2021/04/18 06:32:36;;;;;;;30.30;12.45;;;;;;;5.68;100.00;102438.41;6164769;23;20009;-84
2021/04/18 06:35:01;;;;;;;26.50;11.20;;;;;;;5.96;100.00;102447.19;6165003;23;20010;-83
2021/04/18 06:37:27;;;;;;;27.50;10.65;;;;;;;5.83;100.00;102445.44;6137132;23;20088;-81
2021/04/18 06:39:53;;;;;;;20.70;8.90;;;;;;;5.85;100.00;102442.78;6161791;23;20055;-81
2021/04/18 06:42:22;;;;;;;25.25;9.82;;;;;;;6.09;100.00;102447.22;6165684;23;20024;-84
2021/04/18 06:44:47;;;;;;;27.13;9.82;;;;;;;6.11;100.00;102430.56;6139167;23;20009;-83
2021/04/18 06:47:14;;;;;;;19.58;8.65;;;;;;;6.20;100.00;102445.44;6165608;23;20012;-83
2021/04/18 06:49:40;;;;;;;21.60;9.27;;;;;;;6.11;100.00;102448.94;6164813;23;20009;-82
2021/04/18 06:52:09;;;;;;;22.75;8.23;;;;;;;6.16;100.00;102441.06;6163103;23;20009;-81
2021/04/18 06:54:35;;;;;;;16.73;7.05;;;;;;;5.92;100.00;102442.84;6162033;23;20006;-82
2021/04/18 06:57:01;;;;;;;21.67;9.40;;;;;;;6.05;100.00;102442.84;6165935;23;20024;-83
2021/04/18 06:59:26;;;;;;;22.63;9.20;;;;;;;6.25;100.00;102442.81;6165698;23;20316;-82
2021/04/18 07:01:51;;;;;;;16.33;8.68;;;;;;;6.47;100.00;102436.66;6163410;23;20013;-83
2021/04/18 07:04:19;;;;;;;21.75;8.70;;;;;;;6.52;100.00;102445.38;6163772;23;20005;-82
2021/04/18 07:06:48;;;;;;;21.45;8.82;;;;;;;6.41;100.00;102447.16;6162275;23;20028;-84
2021/04/18 07:09:15;;;;;;;25.00;9.43;;;;;;;6.65;100.00;102448.88;6136694;23;20006;-83
2021/04/18 07:11:50;;;;;;;22.42;9.10;;;;;;;6.75;100.00;102450.59;6163714;23;20005;-83
2021/04/18 07:14:30;;;;;;;21.13;8.60;;;;;;;6.29;100.00;102447.19;6163253;23;20041;-82
2021/04/18 07:17:15;;;;;;;21.15;9.18;;;;;;;6.62;100.00;102448.88;6137050;23;20006;-82
2021/04/18 07:19:42;;;;;;;13.90;6.53;;;;;;;6.26;100.00;102453.31;6142870;23;20048;-80
2021/04/18 07:22:09;;;;;;;16.33;8.43;;;;;;;6.01;100.00;102456.81;6142408;23;20010;-79
2021/04/18 07:24:54;;;;;;;25.05;8.40;;;;;;;6.29;100.00;102447.19;6171024;23;20020;-79
2021/04/18 07:27:22;;;;;;;21.35;7.47;;;;;;;6.36;100.00;102454.19;6163920;23;20585;-83
2021/04/18 07:29:55;;;;;;;17.30;7.55;;;;;;;6.35;100.00;102447.19;6159695;23;20036;-82
2021/04/18 07:32:26;;;;;;;19.80;7.43;;;;;;;6.37;100.00;102448.91;6132229;23;20714;-81
2021/04/18 07:34:52;;;;;;;17.70;8.45;;;;;;;6.82;100.00;102449.69;6160246;23;20574;-84
2021/04/18 07:37:21;;;;;;;22.17;8.43;;;;;;;6.85;100.00;102428.66;6134250;23;20040;-81
2021/04/18 07:39:57;;;;;;;21.00;8.80;;;;;;;7.00;100.00;102443.50;6159659;23;20010;-82
2021/04/18 07:42:28;;;;;;;24.85;8.38;;;;;;;6.82;100.00;102428.66;6161300;23;20012;-83
2021/04/18 07:44:56;;;;;;;24.58;9.02;;;;;;;7.02;100.00;102425.97;6135702;23;20006;-84
2021/04/18 07:47:22;;;;;;;22.45;10.15;;;;;;;7.21;100.00;102424.13;6160315;23;20005;-81
2021/04/18 07:49:48;;;;;;;22.80;9.45;;;;;;;7.18;100.00;102418.91;6134951;23;20008;-82
2021/04/18 07:52:16;;;;;;;21.90;9.90;;;;;;;7.26;100.00;102414.44;6155844;23;20006;-82
2021/04/18 07:54:42;;;;;;;21.00;9.43;;;;;;;6.81;100.00;102415.53;6154786;23;20602;-83
2021/04/18 07:57:08;;;;;;;25.35;12.75;;;;;;;7.11;100.00;102404.88;6157048;23;20055;-82
2021/04/18 07:59:33;;;;;;;23.83;12.85;;;;;;;7.14;100.00;102409.28;6157029;23;20696;-82
2021/04/18 08:01:58;;;;;;;24.10;11.32;;;;;;;7.36;100.00;102415.28;6130387;23;20309;-81
2021/04/18 08:04:24;;;;;;;25.00;11.40;;;;;;;7.21;100.00;102413.59;6130442;23;20040;-82
2021/04/18 08:06:49;;;;;;;25.33;13.02;;;;;;;7.48;100.00;102418.72;6156610;23;20005;-82
2021/04/18 08:09:22;;;;;;;25.98;12.25;;;;;;;7.90;100.00;102418.41;6156244;23;20013;-82
2021/04/18 08:12:09;;;;;;;23.63;12.75;;;;;;;7.92;100.00;102422.75;6128943;23;20008;-82
2021/04/18 08:14:36;;;;;;;27.25;12.27;;;;;;;8.02;100.00;102411.25;6127208;23;20013;-80
2021/04/18 08:17:04;;;;;;;27.80;11.85;;;;;;;7.99;100.00;102419.19;6125388;23;20006;-80
2021/04/18 08:19:30;;;;;;;26.48;12.45;;;;;;;8.13;100.00;102419.06;6160538;23;20597;-82
2021/04/18 08:21:55;;;;;;;21.05;11.35;;;;;;;8.17;100.00;102418.13;6132182;23;20005;-82
2021/04/18 08:24:20;;;;;;;19.70;11.43;;;;;;;8.39;100.00;102424.13;6156292;23;20093;-82
2021/04/18 08:27:13;;;;;;;20.17;11.00;;;;;;;8.71;100.00;102428.16;6131419;23;20017;-83
2021/04/18 08:29:58;;;;;;;20.90;10.35;;;;;;;8.52;100.00;102424.84;6014351;23;20341;-82
2021/04/18 08:32:41;;;;;;;20.35;10.55;;;;;;;8.51;100.00;102431.03;6013170;23;20449;-83
2021/04/18 08:35:13;;;;;;;22.83;10.02;;;;;;;8.35;100.00;102430.28;6036771;23;20053;-83
2021/04/18 08:37:38;;;;;;;19.15;9.73;;;;;;;8.69;100.00;102433.47;6012420;23;20093;-82
2021/04/18 08:40:05;;;;;;;19.55;9.40;;;;;;;8.63;100.00;102424.72;6036966;23;20785;-82
2021/04/18 08:42:31;;;;;;;15.32;8.10;;;;;;;8.63;100.00;102415.06;6047412;23;20004;-84
2021/04/18 08:44:58;;;;;;;23.45;8.23;;;;;;;8.50;100.00;102409.06;6047659;23;20026;-83
2021/04/18 08:47:28;;;;;;;17.77;8.13;;;;;;;8.84;100.00;102402.56;6046205;23;20629;-84
2021/04/18 08:49:57;;;;;;;17.98;7.07;;;;;;;9.07;100.00;102398.69;6036608;23;20198;-84
2021/04/18 08:52:28;;;;;;;13.85;5.47;;;;;;;8.71;100.00;102404.44;6023236;23;20046;-81
2021/04/18 08:55:01;;;;;;;17.38;6.40;;;;;;;8.94;100.00;102406.81;6050343;23;20014;-82
2021/04/18 08:57:29;;;;;;;20.27;5.93;;;;;;;9.27;100.00;102401.06;6029204;23;20138;-83
2021/04/18 09:00:00;;;;;;;14.73;5.95;;;;;;;9.42;100.00;102404.38;6030132;23;20014;-83
2021/04/18 09:02:28;;;;;;;14.02;6.03;;;;;;;9.51;100.00;102402.47;6055899;23;20011;-83
2021/04/18 09:04:57;;;;;;;22.45;6.72;;;;;;;9.54;100.00;102407.72;6061727;23;20021;-85
2021/04/18 09:07:29;;;;;;;16.92;6.75;;;;;;;9.24;100.00;102410.81;6158027;23;20046;-82
2021/04/18 09:10:02;;;;;;;12.55;6.60;;;;;;;9.77;100.00;102411.75;6148959;23;20008;-83
2021/04/18 09:12:28;;;;;;;16.02;5.22;;;;;;;9.79;100.00;102404.69;6144096;23;20377;-83
2021/04/18 09:14:53;;;;;;;20.60;6.28;;;;;;;9.83;100.00;102406.38;6142128;23;20006;-83
2021/04/18 09:17:24;;;;;;;14.30;4.90;;;;;;;10.04;100.00;102407.78;6145606;23;20017;-82
2021/04/18 09:19:56;;;;;;;14.48;4.70;;;;;;;9.59;100.00;102408.53;6151475;23;19997;-84
2021/04/18 09:22:29;;;;;;;13.00;5.32;;;;;;;9.59;100.00;102397.97;6177186;23;19986;-81
2021/04/18 09:25:07;;;;;;;17.13;5.63;;;;;;;9.59;100.00;102400.59;6157480;23;20005;-83
2021/04/18 09:27:36;;;;;;;12.30;5.03;;;;;;;9.94;100.00;102406.19;6155307;23;20013;-83
2021/04/18 09:30:10;;;;;;;15.23;5.18;;;;;;;10.56;100.00;102389.22;6153999;23;20025;-84
2021/04/18 09:32:38;;;;;;;17.52;5.88;;;;;;;10.33;100.00;102396.72;6129438;23;20553;-83
2021/04/18 09:35:05;;;;;;;15.32;4.75;;;;;;;10.59;100.00;102401.50;6130481;23;20008;-83
2021/04/18 09:37:33;;;;;;;11.00;4.78;;;;;;;10.59;100.00;102402.41;6149187;23;20064;-83
2021/04/18 09:40:04;;;;;;;15.40;6.13;;;;;;;10.74;100.00;102398.56;6120351;23;20020;-83
2021/04/18 09:42:32;;;;;;;18.73;5.55;;;;;;;10.95;100.00;102389.31;6148034;23;19997;-83
2021/04/18 09:45:15;;;;;;;15.75;4.82;;;;;;;10.75;100.00;102394.16;6158934;23;20057;-83
2021/04/18 09:47:42;;;;;;;12.93;5.85;;;;;;;11.26;100.00;102388.66;6139482;23;20008;-84
2021/04/18 09:50:17;;;;;;;17.15;5.70;;;;;;;11.19;100.00;102393.19;6162607;23;20001;-83
2021/04/18 09:52:42;;;;;;;11.57;5.65;;;;;;;11.32;100.00;102386.72;6130108;23;20005;-83
2021/04/18 09:55:18;;;;;;;13.02;5.15;;;;;;;11.51;100.00;102388.94;6131465;23;20438;-83
2021/04/18 09:57:52;;;;;;;14.02;5.53;;;;;;;11.72;100.00;102385.78;6130906;23;20383;-83
2021/04/18 10:00:24;;;;;;;15.48;6.18;;;;;;;11.68;100.00;102386.75;6154319;23;20005;-82
2021/04/18 10:03:09;;;;;;;13.95;4.97;;;;;;;12.22;100.00;102386.28;6149055;23;20080;-83
2021/04/18 10:05:56;;;;;;;15.07;5.47;;;;;;;12.85;100.00;102382.75;6125177;23;20036;-83
2021/04/18 10:08:27;;;;;;;7.07;3.58;;;;;;;13.54;100.00;102385.06;6122422;23;20498;-81
2021/04/18 10:11:10;;;;;;;16.90;5.70;;;;;;;13.86;100.00;102379.59;6121086;23;20017;-82
2021/04/18 10:13:42;;;;;;;16.27;5.35;;;;;;;12.99;100.00;102390.28;6124028;23;20455;-83
2021/04/18 10:16:08;;;;;;;20.35;5.70;;;;;;;12.58;100.00;102388.84;6150995;23;20006;-82
2021/04/18 10:18:35;;;;;;;16.33;5.68;;;;;;;13.33;100.00;102386.63;6127282;23;20009;-84
2021/04/18 10:21:21;;;;;;;14.80;5.75;;;;;;;12.63;100.00;102392.22;6149135;23;20264;-83
2021/04/18 10:23:49;;;;;;;7.18;4.82;;;;;;;13.39;100.00;102384.66;6130368;23;20002;-83
2021/04/18 10:26:18;;;;;;;10.45;4.85;;;;;;;14.45;100.00;102379.25;6129241;23;20439;-83
2021/04/18 10:28:43;;;;;;;13.95;5.22;;;;;;;13.48;100.00;102387.00;6125593;23;20444;-83
2021/04/18 10:31:11;;;;;;;18.70;6.00;;;;;;;13.76;100.00;102383.47;6125734;23;20009;-83
2021/04/18 10:33:36;;;;;;;9.95;4.97;;;;;;;14.85;100.00;102364.50;6128082;23;20013;-83
2021/04/18 10:36:02;;;;;;;12.77;5.22;;;;;;;15.53;89.08;102376.91;6151025;23;20084;-82
2021/04/18 10:38:27;;;;;;;17.83;5.35;;;;;;;15.99;77.21;102367.00;6123408;23;20002;-83
2021/04/18 10:40:53;;;;;;;12.95;5.30;;;;;;;16.05;77.69;102376.53;6126616;23;20006;-83
2021/04/18 10:43:18;;;;;;;12.90;5.40;;;;;;;16.41;76.35;102360.72;6127043;23;20001;-83
2021/04/18 10:45:43;;;;;;;23.77;4.90;;;;;;;19.34;55.57;102354.75;6152132;23;20400;-83
2021/04/18 10:48:10;;;;;;;16.45;4.95;;;;;;;18.35;52.10;102355.75;6124056;23;20013;-83
2021/04/18 10:50:35;;;;;;;15.60;5.88;;;;;;;17.65;52.97;102357.53;6121807;23;20017;-83
2021/04/18 10:53:01;;;;;;;11.30;5.18;;;;;;;19.07;48.90;102354.50;6122163;23;20005;-82
2021/04/18 10:55:27;;;;;;;9.63;4.40;;;;;;;20.25;44.46;102361.03;6126643;23;20009;-83
2021/04/18 10:57:52;;;;;;;10.98;5.20;;;;;;;19.57;45.64;102353.41;6152256;23;20009;-83
2021/04/18 11:00:18;;;;;;;11.80;5.43;;;;;;;19.88;41.58;102355.19;6123351;23;20043;-83
2021/04/18 11:02:44;;;;;;;14.75;6.35;;;;;;;16.45;50.36;102365.00;6126210;23;20704;-83
2021/04/18 11:05:10;;;;;;;14.80;5.47;;;;;;;18.41;44.88;102350.06;6129030;23;20040;-83
2021/04/18 11:07:35;;;;;;;13.70;5.70;;;;;;;19.39;43.62;102341.97;6155869;23;20031;-83
2021/04/18 11:10:01;;;;;;;12.05;5.38;;;;;;;21.04;40.31;102339.91;6156208;23;20301;-83
2021/04/18 11:12:27;;;;;;;11.60;5.75;;;;;;;18.91;43.48;102334.88;6156002;23;20013;-83
2021/04/18 11:14:52;;;;;;;9.15;4.88;;;;;;;18.29;43.78;102338.19;6132230;23;20009;-83